Hauptseite
METAR-TAF:

METAR-TAF

Flughäfen :

Heeresflugplatz Fritzlar

Fritzlar, Deutschland

Breite: 51-07N, Länge: 009-17E, Höhe: 172 m

Beobachtung

Neuester Wetterbericht von vor 45 Minuten, um 18:20 UTC
Wind 3 kt aus Ost
Temperatur 29°C
Luftfeuchtigkeit 23%
Luftdruck 1019 hPa
Sichtweite 10 km oder mehr
Aufgelockert bewölkt in der Höhe von 35000 ft

METAR: ETHF 061820Z 10003KT 9999 SCT350 29/06 Q1019 BLU+

Zeit: 21:05 (19:05 UTC)

Prognose

Neuester Wetterbericht von vor 5 Stunden und 51 Minuten, um 13:14 UTC
Gültige Prognose vom 06 um 14 UTC bis 06 um 23 UTC
Wind 3 kt aus unterschiedlichen Richtungen
Sichtweite 10 km oder mehr
Leicht bewölkt in der Höhe von 30000 ft

TAF: ETHF 061314Z 0614/0623 VRB03KT 9999 NSW FEW300

Wetterbeobachtungen und Prognosen von mehr als 4000 Flughäfen (METAR und TAF Bericht).

Die verfügbaren Stationen werden durch gelbe und rote Markierungen auf der Karte dargestellt.

Führen Sie die Maus auf sie, um den Namen der Station zu sehen.

Darauf klicken, um die Beobachtung von Wetterbeobachtungen und Prognosen zu sehen.

Um die Karte zu ändern : klicken Sie auf den grünen Tasten mit einem schwarzen Kreuz Zum Vergrößern, auf den grünen Button mit einem Gedankenstrich zu verkleinern, oder auf die grünen Pfeile für benachbarte Karten.


METAR-TAF: